Lawrenceville, NJ

23:32 EDT dnia 28-sierpień-2016 (GMT -0400)
HamiltonWeather.Net | | Change Station

Wysokość 67 ft 40.26 °N, 74.67 °W | Updated 3 seconds ago

Clear
pogodnie
73.8 ° F
Odczuwalna 75 ° F
Płn.
1.0
Wiatr zmienny Wiatr od południowy
Gusts 3.0 mph

Dziś
Wysoka -- | Niska -- ° F
--% Prawdop. opadów
Wczoraj
Wysoka -- | Niska -- ° F
Precip. -- cali
Ciśnienie 30.16 cali
Widzialność 10.0 mil
chmury pogodnie
Odczucie gorąca 75 ° F
Punkt rosy 66 ° F
Wilgotność 77%
Opady deszczu 0.00 cali
grubość pokrywy śnieżnej Niedostępne.
6:22 AM 7:36 PM
Zmniejszający się sierp Księżyca, 11% visible
METAR KTTN 290253Z AUTO 20005KT 10SM CLR 23/17 A3018 RMK AO2 SLP212 T02330172 53013
Ciśnienie 30.16 cali
Widzialność 10.0 mil
chmury pogodnie
Odczucie gorąca 75 ° F
Punkt rosy 66 ° F
Wilgotność 77%
Opady deszczu 0.00 cali
grubość pokrywy śnieżnej Niedostępne.
6:22 AM 7:36 PM
Zmniejszający się sierp Księżyca, 11% visible
METAR KTTN 290253Z AUTO 20005KT 10SM CLR 23/17 A3018 RMK AO2 SLP212 T02330172 53013

10-Day Weather Forecast

Almanac

Astronomia

Aug. 28, 2016 Wschód Zachów
Aktualny czas
Zmierzch cywilny
Zmierzch żeglarski
świt/zmierzch astronomiczny
Księżyc
całkowite oświetlenie
Długość dnia
Tomorrow will be .
, % of the Moon is Illuminated

Dzisiejsze ekstrema

State Highs State Lows

Community

WunderPhotos

Upload Photos

1,935,782 zdjęcia zostały przesłane!

WunderBlog® & News

Nearby

Jakość powietrza

  Jakość powietrza czynnik AQ Zanieczyszczenie
Not available.

Głębokość pokrywy śnieżnej

Station Depth n.p.m.

Aktywność sejsmiczna

Miejscowość Distance Mag. Time & Date
Minimum magnitude displayed is 2.5.

Temperatury wody na wybrzeżu

Miejsce Temperatura

Stations

Najbliższa stacja pogodowa

Lokalizacja stacji Temp. czynnik chłodzący wiatru Punkt rosy Wilgotność Wiatr Precip. Wysokość Uaktualniono Typ
                   

Watches & Warnings

There are currently no watches in effect.